createdAt,value
2019-02-17T00:06:28.092Z,10.23
2019-02-17T00:09:00.172Z,10.10
2019-02-17T00:11:44.173Z,11.15
2019-02-17T00:21:34.789Z,10.23
2019-02-17T00:24:42.150Z,9.95
2019-02-17T00:27:37.972Z,10.48
2019-02-17T00:30:27.077Z,9.15
2019-02-17T00:38:37.595Z,9.08
2019-02-17T00:41:20.290Z,10.70
2019-02-17T00:53:21.256Z,9.80
2019-02-17T00:55:57.591Z,10.90
2019-02-17T00:58:28.068Z,11.10
2019-02-17T01:00:58.085Z,9.98
2019-02-17T01:03:28.182Z,9.85
2019-02-17T01:05:58.383Z,10.35
2019-02-17T01:08:28.509Z,9.73
2019-02-17T01:10:59.059Z,10.55
2019-02-17T01:13:29.762Z,10.70
2019-02-17T01:15:59.886Z,11.73
2019-02-17T01:18:29.782Z,11.08
2019-02-17T01:21:01.218Z,9.33
2019-02-17T01:24:06.071Z,11.15
2019-02-17T01:26:36.256Z,10.30
2019-02-17T01:29:06.159Z,9.98
2019-02-17T01:31:36.217Z,9.90
2019-02-17T01:34:10.246Z,9.58
2019-02-17T01:36:40.081Z,10.03
2019-02-17T01:39:10.016Z,9.80
2019-02-17T01:41:39.993Z,11.33
2019-02-17T01:44:10.011Z,10.45
2019-02-17T01:46:39.861Z,11.03
2019-02-17T01:49:09.720Z,10.20
2019-02-17T01:51:39.764Z,10.28
2019-02-17T01:54:14.961Z,11.57
2019-02-17T01:56:45.440Z,10.40
2019-02-17T01:59:15.480Z,11.03
2019-02-17T02:01:45.727Z,11.48
2019-02-17T02:04:15.684Z,10.40
2019-02-17T02:06:45.625Z,10.10
2019-02-17T02:09:15.554Z,11.43
2019-02-17T02:11:45.504Z,10.20
2019-02-17T02:14:15.595Z,9.90
2019-02-17T02:16:45.720Z,10.78
2019-02-17T02:19:16.446Z,10.10
2019-02-17T02:21:46.577Z,11.88
2019-02-17T02:24:16.487Z,10.82
2019-02-17T02:26:46.547Z,10.45
2019-02-17T02:29:16.695Z,11.35
2019-02-17T02:31:46.899Z,8.95
2019-02-17T02:34:16.920Z,11.20
2019-02-17T02:36:46.849Z,10.10
2019-02-17T02:39:16.686Z,10.60
2019-02-17T02:41:46.634Z,10.25
2019-02-17T02:44:16.471Z,10.72
2019-02-17T02:46:46.409Z,11.25
2019-02-17T02:49:16.345Z,9.98
2019-02-17T02:51:46.186Z,10.43
2019-02-17T02:54:16.042Z,10.38
2019-02-17T02:56:49.109Z,10.45
2019-02-17T02:59:19.083Z,11.78
2019-02-17T03:01:48.967Z,10.90
2019-02-17T03:04:18.862Z,9.95
2019-02-17T03:06:52.216Z,10.58
2019-02-17T03:09:22.362Z,10.50
2019-02-17T03:11:52.280Z,11.12
2019-02-17T03:14:22.165Z,11.93
2019-02-17T03:16:52.152Z,10.60
2019-02-17T03:19:22.845Z,10.38
2019-02-17T03:21:52.756Z,10.65
2019-02-17T03:24:22.658Z,11.03
2019-02-17T03:26:52.681Z,10.68
2019-02-17T03:29:22.591Z,10.15
2019-02-17T03:31:52.622Z,10.50
2019-02-17T03:34:22.553Z,10.95
2019-02-17T03:36:52.438Z,10.10
2019-02-17T03:39:22.413Z,10.98
2019-02-17T03:41:52.499Z,9.40
2019-02-17T03:44:22.415Z,10.45
2019-02-17T03:46:53.329Z,10.18
2019-02-17T03:49:23.348Z,10.28
2019-02-17T03:51:53.290Z,12.25
2019-02-17T03:54:23.112Z,10.98
2019-02-17T03:56:53.008Z,10.75
2019-02-17T03:59:22.926Z,11.15
2019-02-17T04:01:52.761Z,10.75
2019-02-17T04:04:22.659Z,9.40
2019-02-17T04:06:52.862Z,10.55
2019-02-17T04:09:22.778Z,12.00
2019-02-17T04:11:52.597Z,11.68
2019-02-17T04:14:22.394Z,11.40
2019-02-17T04:16:52.366Z,10.18
2019-02-17T04:19:22.248Z,12.80
2019-02-17T04:21:53.476Z,12.07
2019-02-17T04:24:23.672Z,10.38
2019-02-17T04:26:53.665Z,11.00
2019-02-17T04:29:23.699Z,11.78
2019-02-17T04:31:53.602Z,11.40
2019-02-17T04:34:23.471Z,9.98
2019-02-17T04:36:53.728Z,11.05
2019-02-17T04:39:23.770Z,10.80
2019-02-17T04:41:54.039Z,11.30
2019-02-17T04:44:25.495Z,11.10
2019-02-17T04:46:55.497Z,10.90
2019-02-17T04:49:25.356Z,11.80
2019-02-17T04:51:55.558Z,12.70
2019-02-17T04:54:25.446Z,11.18
2019-02-17T04:56:55.368Z,11.90
2019-02-17T04:59:25.344Z,10.90
2019-02-17T05:01:57.082Z,11.73
2019-02-17T05:04:26.985Z,11.45
2019-02-17T05:06:56.883Z,11.88
2019-02-17T05:09:26.742Z,12.55
2019-02-17T05:11:56.541Z,12.65
2019-02-17T05:14:26.373Z,13.45
2019-02-17T05:16:56.365Z,12.05
2019-02-17T05:19:26.281Z,12.30
2019-02-17T05:21:56.379Z,13.30
2019-02-17T05:24:26.267Z,11.88
2019-02-17T05:26:59.072Z,12.60
2019-02-17T05:29:28.908Z,12.88
2019-02-17T05:31:58.773Z,12.68
2019-02-17T05:34:28.539Z,13.25
2019-02-17T05:36:58.351Z,12.75
2019-02-17T05:39:28.398Z,11.63
2019-02-17T05:41:58.382Z,10.80
2019-02-17T05:44:28.268Z,11.28
2019-02-17T05:46:58.186Z,11.40
2019-02-17T05:49:28.155Z,13.28
2019-02-17T05:51:58.344Z,15.55
2019-02-17T05:54:28.231Z,13.13
2019-02-17T05:56:58.475Z,14.55
2019-02-17T05:59:28.562Z,14.13
2019-02-17T06:01:58.899Z,12.43
2019-02-17T06:04:28.841Z,14.20
2019-02-17T06:06:59.202Z,12.88
2019-02-17T06:09:29.099Z,13.00
2019-02-17T06:11:59.299Z,13.28
2019-02-17T06:14:29.240Z,14.73
2019-02-17T06:17:02.070Z,13.48
2019-02-17T06:19:31.969Z,12.58
2019-02-17T06:22:01.837Z,12.55
2019-02-17T06:24:31.677Z,11.90
2019-02-17T06:27:01.869Z,12.37
2019-02-17T06:29:31.956Z,12.37
2019-02-17T06:32:01.800Z,11.90
2019-02-17T06:34:31.698Z,12.33
2019-02-17T06:37:01.690Z,11.83
2019-02-17T06:39:31.632Z,12.65
2019-02-17T06:42:01.974Z,13.10
2019-02-17T06:44:32.300Z,12.98
2019-02-17T06:47:29.443Z,12.60
2019-02-17T06:50:02.818Z,13.68
2019-02-17T06:52:32.681Z,12.75
2019-02-17T06:55:25.682Z,12.37
2019-02-17T06:58:02.376Z,13.20
2019-02-17T07:00:35.953Z,12.78
2019-02-17T07:03:08.840Z,12.35
2019-02-17T07:05:59.321Z,12.45
2019-02-17T07:08:31.292Z,13.62
2019-02-17T07:11:07.069Z,13.83
2019-02-17T07:13:42.475Z,13.55
2019-02-17T07:16:13.417Z,14.15
2019-02-17T07:18:48.081Z,13.13
2019-02-17T07:21:20.489Z,11.90
2019-02-17T07:24:00.062Z,12.40
2019-02-17T07:26:32.003Z,13.03
2019-02-17T07:29:03.398Z,13.10
2019-02-17T07:31:41.444Z,12.58
2019-02-17T07:34:14.751Z,12.10
2019-02-17T07:36:44.656Z,12.28
2019-02-17T07:39:14.492Z,13.13
2019-02-17T07:41:44.342Z,13.45
2019-02-17T07:44:14.319Z,13.93
2019-02-17T07:46:44.306Z,13.15
2019-02-17T07:49:17.508Z,12.45
2019-02-17T07:51:47.446Z,12.75
2019-02-17T07:54:19.369Z,13.08
2019-02-17T07:56:49.868Z,12.35
2019-02-17T07:59:28.684Z,12.00
2019-02-17T08:02:02.276Z,12.95
2019-02-17T08:04:32.402Z,11.83
2019-02-17T08:07:08.626Z,12.07
2019-02-17T08:09:38.562Z,12.25
2019-02-17T08:15:54.779Z,14.07
2019-02-17T08:18:30.206Z,13.60
2019-02-17T08:21:16.787Z,13.93
2019-02-17T08:24:14.418Z,15.78
2019-02-17T08:30:45.152Z,13.93
2019-02-17T08:33:16.941Z,15.28
2019-02-17T08:36:15.033Z,16.25
2019-02-17T08:39:25.508Z,13.93
2019-02-17T08:42:19.978Z,15.83
2019-02-17T08:45:55.875Z,13.58
2019-02-17T08:49:15.172Z,14.15
2019-02-17T08:51:54.409Z,15.38
2019-02-17T08:54:30.770Z,16.20
2019-02-17T08:57:03.800Z,14.07
2019-02-17T08:59:35.298Z,16.48
2019-02-17T09:02:08.456Z,15.95
2019-02-17T09:04:38.887Z,15.15
2019-02-17T09:07:10.839Z,14.87
2019-02-17T09:10:01.715Z,15.55
2019-02-17T09:12:38.159Z,15.75
2019-02-17T09:15:26.131Z,14.15
2019-02-17T09:17:56.348Z,15.93
2019-02-17T09:20:54.548Z,15.32
2019-02-17T09:23:24.514Z,14.75
2019-02-17T09:25:54.729Z,15.95
2019-02-17T09:28:25.167Z,16.70
2019-02-17T09:30:57.570Z,13.95
2019-02-17T09:33:27.726Z,15.15
2019-02-17T09:35:59.753Z,14.75
2019-02-17T09:38:32.320Z,17.23
2019-02-17T09:41:02.548Z,14.73
2019-02-17T09:43:33.383Z,15.78
2019-02-17T09:46:03.774Z,14.95
2019-02-17T09:48:34.191Z,14.80
2019-02-17T09:51:04.387Z,15.53
2019-02-17T09:53:34.468Z,15.65
2019-02-17T09:56:05.347Z,14.33
2019-02-17T09:58:41.669Z,14.58
2019-02-17T10:03:59.762Z,13.80
2019-02-17T10:06:32.021Z,14.28
2019-02-17T10:09:04.134Z,15.38
2019-02-17T10:11:34.604Z,14.20
2019-02-17T10:14:04.998Z,14.20
2019-02-17T10:16:35.349Z,14.00
2019-02-17T10:19:05.682Z,13.25
2019-02-17T10:21:35.732Z,14.60
2019-02-17T10:24:05.906Z,15.40
2019-02-17T10:26:39.534Z,14.47
2019-02-17T10:29:14.836Z,15.28
2019-02-17T10:31:44.973Z,17.32
2019-02-17T10:34:33.916Z,17.05
2019-02-17T10:37:37.625Z,14.80
2019-02-17T10:40:15.755Z,16.73
2019-02-17T10:42:45.904Z,14.80
2019-02-17T10:45:16.465Z,16.60
2019-02-17T10:47:46.690Z,13.45
2019-02-17T10:50:17.605Z,15.60
2019-02-17T10:52:49.637Z,16.37
2019-02-17T10:55:19.526Z,14.35
2019-02-17T10:57:49.789Z,14.28
2019-02-17T11:00:20.015Z,14.03
2019-02-17T11:02:50.300Z,15.08
2019-02-17T11:05:20.403Z,14.83
2019-02-17T11:07:50.451Z,14.38
2019-02-17T11:10:20.305Z,14.43
2019-02-17T11:12:50.380Z,14.43
2019-02-17T11:15:20.244Z,14.35
2019-02-17T11:17:50.270Z,13.65
2019-02-17T11:20:20.095Z,14.83
2019-02-17T11:22:50.434Z,14.80
2019-02-17T11:25:20.344Z,14.63
2019-02-17T11:27:50.261Z,14.98
2019-02-17T11:30:20.238Z,14.30
2019-02-17T11:32:57.605Z,15.35
2019-02-17T11:35:22.284Z,13.85
2019-02-17T11:37:52.171Z,14.53
2019-02-17T11:40:22.134Z,14.30
2019-02-17T11:42:52.061Z,13.90
2019-02-17T11:45:22.173Z,14.35
2019-02-17T11:47:52.049Z,14.33
2019-02-17T11:50:21.920Z,14.38
2019-02-17T11:52:52.222Z,14.23
2019-02-17T11:55:22.857Z,12.68
2019-02-17T11:57:57.536Z,14.28
2019-02-17T12:00:54.304Z,13.18
2019-02-17T12:03:24.464Z,12.70
2019-02-17T12:05:54.386Z,13.98
2019-02-17T12:08:24.279Z,14.30
2019-02-17T12:10:54.642Z,13.55
2019-02-17T12:13:24.588Z,14.60
2019-02-17T12:15:54.480Z,13.68
2019-02-17T12:18:24.488Z,13.80
2019-02-17T12:21:04.045Z,13.58
2019-02-17T12:23:40.007Z,14.87
2019-02-17T12:26:27.334Z,13.83
2019-02-17T12:29:01.693Z,13.48
2019-02-17T12:31:34.878Z,12.55
2019-02-17T12:34:04.766Z,13.48
2019-02-17T12:36:34.661Z,13.38
2019-02-17T12:39:07.635Z,14.25
2019-02-17T12:41:37.711Z,12.82
2019-02-17T12:44:07.740Z,14.78
2019-02-17T12:46:38.267Z,13.40
2019-02-17T12:49:09.383Z,13.05
2019-02-17T12:51:39.413Z,13.43
2019-02-17T12:54:09.534Z,13.18
2019-02-17T12:56:39.752Z,12.90
2019-02-17T12:59:09.773Z,13.98
2019-02-17T13:01:40.021Z,13.53
2019-02-17T13:04:10.091Z,13.35
2019-02-17T13:06:40.083Z,12.43
2019-02-17T13:09:10.071Z,14.13
2019-02-17T13:11:39.922Z,13.80
2019-02-17T13:14:09.873Z,12.30
2019-02-17T13:16:40.262Z,14.05
2019-02-17T13:19:10.129Z,12.78
2019-02-17T13:21:40.008Z,12.28
2019-02-17T13:24:09.924Z,13.10
2019-02-17T13:26:39.933Z,12.55
2019-02-17T13:29:10.904Z,12.75
2019-02-17T13:31:40.815Z,13.45
2019-02-17T13:34:11.167Z,11.65
2019-02-17T13:36:41.096Z,10.60
2019-02-17T13:39:10.979Z,11.80
2019-02-17T13:41:40.882Z,12.20
2019-02-17T13:44:10.827Z,10.80
2019-02-17T13:46:40.927Z,11.10
2019-02-17T13:49:10.934Z,11.60
2019-02-17T13:51:43.014Z,10.98
2019-02-17T13:54:12.982Z,10.95
2019-02-17T13:56:42.988Z,10.18
2019-02-17T13:59:12.909Z,11.28
2019-02-17T14:01:42.806Z,10.80
2019-02-17T14:04:15.145Z,10.35
2019-02-17T14:06:45.234Z,10.28
2019-02-17T14:09:15.131Z,11.65
2019-02-17T14:11:45.064Z,9.80
2019-02-17T14:14:14.984Z,10.68
2019-02-17T14:16:45.149Z,10.30
2019-02-17T14:19:15.100Z,9.75
2019-02-17T14:21:45.056Z,8.63
2019-02-17T14:24:14.990Z,7.05
2019-02-17T14:26:44.966Z,7.50
2019-02-17T14:29:15.016Z,6.90
2019-02-17T14:31:45.531Z,7.20
2019-02-17T14:34:15.990Z,5.63
2019-02-17T14:36:46.720Z,6.50
2019-02-17T14:39:17.588Z,5.53
2019-02-17T14:41:47.611Z,4.50
2019-02-17T14:44:17.447Z,4.40
2019-02-17T14:46:47.529Z,4.03
2019-02-17T14:49:17.394Z,4.27
2019-02-17T14:51:47.999Z,4.10
2019-02-17T14:54:18.180Z,4.80
2019-02-17T14:56:48.222Z,4.10
2019-02-17T14:59:18.450Z,3.90
2019-02-17T15:01:48.465Z,4.30
2019-02-17T15:04:18.437Z,3.90
2019-02-17T15:06:48.564Z,3.90
2019-02-17T15:09:21.473Z,3.70
2019-02-17T15:11:51.833Z,4.30
2019-02-17T15:14:27.802Z,4.30
2019-02-17T15:16:58.017Z,4.30
2019-02-17T15:19:35.243Z,4.77
2019-02-17T15:22:02.895Z,4.10
2019-02-17T15:24:36.157Z,4.60
2019-02-17T15:27:06.311Z,4.23
2019-02-17T15:29:36.240Z,3.60
2019-02-17T15:32:06.410Z,3.70
2019-02-17T15:34:36.650Z,4.35
2019-02-17T15:37:06.874Z,3.70
2019-02-17T15:39:36.874Z,4.03
2019-02-17T15:42:08.648Z,3.87
2019-02-17T15:44:38.635Z,4.70
2019-02-17T15:47:08.556Z,4.87
2019-02-17T15:49:39.926Z,4.55
2019-02-17T15:52:09.927Z,4.03
2019-02-17T15:54:39.880Z,4.60
2019-02-17T15:57:10.082Z,4.58
2019-02-17T15:59:40.050Z,4.43
2019-02-17T16:02:09.992Z,4.95
2019-02-17T16:04:39.999Z,5.90
2019-02-17T16:07:09.903Z,6.00
2019-02-17T16:09:39.854Z,6.50
2019-02-17T16:12:09.868Z,6.92
2019-02-17T16:14:41.886Z,10.48
2019-02-17T16:17:12.739Z,10.20
2019-02-17T16:19:42.845Z,8.40
2019-02-17T16:22:13.055Z,9.10
2019-02-17T16:24:46.154Z,8.80
2019-02-17T16:27:16.265Z,9.50
2019-02-17T16:29:46.431Z,8.55
2019-02-17T16:32:19.246Z,7.95
2019-02-17T16:34:50.554Z,8.10
2019-02-17T16:37:20.471Z,7.90
2019-02-17T16:39:51.052Z,8.95
2019-02-17T16:42:21.664Z,10.13
2019-02-17T16:44:51.624Z,7.25
2019-02-17T16:47:21.805Z,8.93
2019-02-17T16:49:51.768Z,8.20
2019-02-17T16:52:21.702Z,7.85
2019-02-17T16:54:51.858Z,7.58
2019-02-17T16:57:21.876Z,7.92
2019-02-17T16:59:52.385Z,8.53
2019-02-17T17:02:22.571Z,8.70
2019-02-17T17:04:52.753Z,7.20
2019-02-17T17:07:22.987Z,6.95
2019-02-17T17:09:53.250Z,6.75
2019-02-17T17:12:24.962Z,7.00
2019-02-17T17:14:55.188Z,8.00
2019-02-17T17:17:25.333Z,7.78
2019-02-17T17:19:55.489Z,8.23
2019-02-17T17:22:25.683Z,6.50
2019-02-17T17:24:55.849Z,7.95
2019-02-17T17:27:25.885Z,7.75
2019-02-17T17:29:56.009Z,7.95
2019-02-17T17:32:31.775Z,7.90
2019-02-17T17:35:03.001Z,6.08
2019-02-17T17:37:33.335Z,7.85
2019-02-17T17:40:06.473Z,7.90
2019-02-17T17:42:36.759Z,7.53
2019-02-17T17:45:10.599Z,8.33
2019-02-17T17:47:40.818Z,8.53
2019-02-17T17:50:13.827Z,7.65
2019-02-17T17:52:44.362Z,7.60
2019-02-17T17:55:15.081Z,7.90
2019-02-17T17:57:49.956Z,6.83
2019-02-17T18:00:20.795Z,6.87
2019-02-17T18:02:51.394Z,7.92
2019-02-17T18:05:23.255Z,8.88
2019-02-17T18:07:56.311Z,8.85
2019-02-17T18:10:26.385Z,7.20
2019-02-17T18:12:56.436Z,6.85
2019-02-17T18:15:28.219Z,10.50
2019-02-17T18:17:58.410Z,8.43
2019-02-17T18:20:28.728Z,11.90
2019-02-17T18:22:59.028Z,8.70
2019-02-17T18:25:29.803Z,9.25
2019-02-17T18:28:00.220Z,7.75
2019-02-17T18:30:37.294Z,8.13
2019-02-17T18:33:07.574Z,8.33
2019-02-17T18:36:19.683Z,7.37
2019-02-17T18:38:49.761Z,7.72
2019-02-17T18:41:20.086Z,7.22
2019-02-17T18:43:50.777Z,7.30
2019-02-17T18:46:21.770Z,10.98
2019-02-17T18:48:51.784Z,10.03
2019-02-17T18:51:22.096Z,8.23
2019-02-17T18:53:52.154Z,7.60
2019-02-17T18:56:24.419Z,10.18
2019-02-17T18:58:55.785Z,10.00
2019-02-17T19:01:27.581Z,9.63
2019-02-17T19:03:57.735Z,6.65
2019-02-17T19:06:47.521Z,7.00
2019-02-17T19:09:18.101Z,7.45
2019-02-17T19:11:53.080Z,7.33
2019-02-17T19:14:23.631Z,7.80
2019-02-17T19:16:55.898Z,8.45
2019-02-17T19:19:30.987Z,8.38
2019-02-17T19:22:01.987Z,7.85
2019-02-17T19:24:32.760Z,7.53
2019-02-17T19:27:03.088Z,7.17
2019-02-17T19:29:33.251Z,6.60
2019-02-17T19:32:03.404Z,7.87
2019-02-17T19:34:36.069Z,8.15
2019-02-17T19:37:09.496Z,8.60
2019-02-17T19:39:39.607Z,7.87
2019-02-17T19:42:09.860Z,7.12
2019-02-17T19:44:39.838Z,6.40
2019-02-17T19:47:11.939Z,7.12
2019-02-17T19:49:42.223Z,7.53
2019-02-17T19:52:13.103Z,6.92
2019-02-17T19:54:43.920Z,6.50
2019-02-17T19:57:17.954Z,6.72
2019-02-17T19:59:53.979Z,7.10
2019-02-17T20:02:39.956Z,6.87
2019-02-17T20:05:14.001Z,8.00
2019-02-17T20:07:44.065Z,9.38
2019-02-17T20:10:14.105Z,7.12
2019-02-17T20:12:44.534Z,7.15
2019-02-17T20:15:14.729Z,6.53
2019-02-17T20:17:45.759Z,7.42
2019-02-17T20:20:17.947Z,7.33
2019-02-17T20:22:48.115Z,6.75
2019-02-17T20:25:21.462Z,7.75
2019-02-17T20:27:51.790Z,6.78
2019-02-17T20:30:22.013Z,6.70
2019-02-17T20:32:52.509Z,7.72
2019-02-17T20:35:26.585Z,7.80
2019-02-17T20:37:57.358Z,8.23
2019-02-17T20:40:29.074Z,8.50
2019-02-17T20:42:59.364Z,7.47
2019-02-17T20:45:30.682Z,6.62
2019-02-17T20:48:01.185Z,6.25
2019-02-17T20:50:32.910Z,7.50
2019-02-17T20:53:19.753Z,7.83
2019-02-17T20:55:49.881Z,7.83
2019-02-17T20:58:26.131Z,7.75
2019-02-17T21:01:00.155Z,7.08
2019-02-17T21:03:31.499Z,7.10
2019-02-17T21:06:12.223Z,7.28
2019-02-17T21:08:36.505Z,6.10
2019-02-17T21:11:07.962Z,7.53
2019-02-17T21:13:41.611Z,6.12
2019-02-17T21:16:14.077Z,6.03
2019-02-17T21:18:44.587Z,6.85
2019-02-17T21:21:14.969Z,6.12
2019-02-17T21:23:45.121Z,6.17
2019-02-17T21:26:15.210Z,6.62
2019-02-17T21:28:45.618Z,6.92
2019-02-17T21:31:15.621Z,6.33
2019-02-17T21:33:58.652Z,5.35
2019-02-17T21:36:31.706Z,6.03
2019-02-17T21:39:03.125Z,5.55
2019-02-17T21:41:35.833Z,6.40
2019-02-17T21:44:06.242Z,5.75
2019-02-17T21:46:36.246Z,6.30
2019-02-17T21:49:06.239Z,5.92
2019-02-17T21:51:36.498Z,5.85
2019-02-17T21:54:06.648Z,6.30
2019-02-17T21:56:36.735Z,5.95
2019-02-17T21:59:08.108Z,6.45
2019-02-17T22:01:38.398Z,5.95
2019-02-17T22:04:09.473Z,5.58
2019-02-17T22:06:39.509Z,5.22
2019-02-17T22:09:09.358Z,6.25
2019-02-17T22:11:39.395Z,6.40
2019-02-17T22:14:12.455Z,6.85
2019-02-17T22:16:42.643Z,5.83
2019-02-17T22:19:13.080Z,6.45
2019-02-17T22:21:50.701Z,5.72
2019-02-17T22:24:20.761Z,5.83
2019-02-17T22:26:50.881Z,7.90
2019-02-17T22:29:20.963Z,7.40
2019-02-17T22:32:08.720Z,6.05
2019-02-17T22:34:44.679Z,5.80
2019-02-17T22:37:18.566Z,6.70
2019-02-17T22:39:48.474Z,6.05
2019-02-17T22:42:18.909Z,6.28
2019-02-17T22:44:54.015Z,7.25
2019-02-17T22:47:24.544Z,7.00
2019-02-17T22:49:55.702Z,6.53
2019-02-17T22:52:25.814Z,6.60
2019-02-17T22:54:56.253Z,6.25
2019-02-17T22:57:28.538Z,6.03
2019-02-17T23:00:00.403Z,6.10
2019-02-17T23:02:30.519Z,6.50
2019-02-17T23:05:00.424Z,6.85
2019-02-17T23:07:30.331Z,6.20
2019-02-17T23:10:00.887Z,6.00
2019-02-17T23:12:31.023Z,5.95
2019-02-17T23:15:00.978Z,6.33
2019-02-17T23:17:34.450Z,6.33
2019-02-17T23:20:04.763Z,6.03
2019-02-17T23:22:34.688Z,6.53
2019-02-17T23:25:05.504Z,6.45
2019-02-17T23:27:38.361Z,5.55
2019-02-17T23:30:08.526Z,5.50
2019-02-17T23:32:40.214Z,6.45
2019-02-17T23:35:12.277Z,6.00
2019-02-17T23:37:44.642Z,5.03
2019-02-17T23:40:15.103Z,6.70
2019-02-17T23:42:45.658Z,5.20
2019-02-17T23:45:15.977Z,5.65
2019-02-17T23:47:47.471Z,5.40
2019-02-17T23:50:18.873Z,5.92
2019-02-17T23:52:49.388Z,5.22
2019-02-17T23:55:19.318Z,5.60
2019-02-17T23:57:50.702Z,5.67
